Terminal Aerodrome Forecast
Issued by NWS Sioux Falls, SD

Home | Current Version | Previous Version | Text Only | Print | Product List | Glossary On
Versions: 1 2 3 4 5 6 7 8 9 10 11 12 13 14 15 16
314
FTUS43 KFSD 110551 CCA
TAFHON
TAF COR
KHON 110551Z 1106/1206 11011KT 3SM -SN BR OVC028
     FM110800 08008KT 2SM -SN OVC015
     FM111000 06007KT 5SM -SN OVC015
     FM111200 01007KT P6SM OVC010
     FM111700 31012KT P6SM BKN035
     FM120500 VRB03KT P6SM SCT200=

USA.gov is the U.S. government's official web portal to all federal, state and local government web resources and services.